This site, now in its 15th season, is a labour of love and fun from one of Ottawa's most avid time trialists and number crunchers. It adheres to and is permitted by the laws of Canada, promotes the objectives of every bicycle club whose results are shown, and is donated free of charge by myself for your enjoyment and usage. If you would like results from series you ride in to be shown here, give me (celia@drmath.ca) a shout!


Index Page
ATT OTT WTT AATT CFCTT VVVTT
Help resultformat:
Case-sensitive

OBC Open TT Series - 2009-Jun-04 - 15km (Rockliffe Pkwy) (EvtFactor = 0.9404)

Weather (18:00): Mainly Sunny. Temp.: 19C, Humidity: 33%, Dew Point: 3C, Wind: SW 13km/h, Pressure: 101.6kPa, Visibility: 24km.
Weather (19:00): Sunny. Temp.: 19C, Humidity: 33%, Dew Point: 3C, Wind: SW 5km/h, Pressure: 101.5kPa, Visibility: 24km.
Weather (20:00): Sunny. Temp.: 18C, Humidity: 36%, Dew Point: 3C, Wind: SW 5km/h, Pressure: 101.5kPa, Visibility: 24km.

Send photos with description (when/where/what) of yourself on or off of bike to celia@drmath.ca

These results were first posted on the OBC site circa 12:30 on 2009-Jun-04 and are available here for your added pleasure and analysis.

 
 

BESTS?
 
1 Nash, Michael  OBC/RWR 19:02 47.285 1/95 VBM 1/23 1.0809
2 Amos, Ron  OBC/RWR 19:38 45.840 2/95 VBM 2/23 1.0491
3 Rendall, Glen  RWR 19:42 45.685 3/95 VBM 3/23 1.0996
4 Martel, Brad RWR 19:53 45.264 4/95 VBM 4/23 1.0331
5 Datars, Paul  OBC/RWR 20:03 44.888 5/95 VCM 1/16 1.0176
6 Hamilton, Peter OBC 20:09 44.665 6/95 VBM 5/23 1.1401
7 Gee, Jon OBC 20:16 44.408 7/95 VBM 6/23 1.0915
8 van den Ham, Douglas  OBC/EMD 20:31 43.867 8/95 VAM 1/19 1.0000
9 Sudac, Rick  OBC/RWR 20:33 43.796 9/95 VDM 1/7 1.0445
10 Devisscher, Thomas --- 20:40 43.548 10/95 SEM 1/5 0.8683
11 Desbiens, Martin OBC/RDO 20:47 43.304 11/95 VBM 7/23 1.0390
12 Campbell, Colin  OBC 20:57 42.959 12/95 VBM 8/23 1.1138
13 Munden, David EMD 21:02 42.789 13/95 VAM 2/19  
14 Tsilemos, Jim RWR 21:04 42.722 14/95 VBM 9/23 1.0754
15 Lefebvre, Jean-Pierre OBC 21:10 42.520 15/95 VAM 3/19 1.1000
16 Cornel, Logan  EUR 21:17 42.287 16/95 SEM 2/5  
Diaz, Rodrigo  OBC 21:17 42.287 16/95 VAM 4/19 1.1297
Roundell, Mark  OBC 21:17 42.287 16/95 VCM 2/16 1.3461
19 Orange, Robert RWR 21:18 42.254 19/95 VBM 10/23 1.1580
20 Cameron, Allen  OBC/RWR 21:32 41.796 20/95 VCM 3/16 1.0424
21 Farish, Neil  OBC/RWR 21:41 41.507 21/95 VCM 4/16 1.0469
22 Moerman, Bram  OBC 21:44 41.411 22/95 VDM 2/7 1.2164
23 Labelle, Marc-Antoine OBC 21:45 41.379 23/95 CAM 1/1 1.1570
24 McKay, Allison  OBC/RDO 21:47 41.316 24/95 VBF 1/7  
25 Budgell, Glen  OBC 21:49 41.253 25/95 VCM 5/16 1.0254
26 Sargent, Larry OBC 21:50 41.221 26/95 VCM 6/16 1.2495
27 Chedore, Paul ULT 21:51 41.190 27/95 VAM 5/19 1.2048
28 Morvan, Jacques  OBC 21:54 41.096 28/95 VDM 3/7  
29 Mullington, Chris WQW 21:58 40.971 29/95 VCM 7/16 0.9552
30 Konov, Sergei OBC 22:06 40.724 30/95 VAM 6/19 1.1594
31 Orange, Kiernan RWR 22:11 40.571 31/95 JUM 1/2 1.1243
32 Armstrong, Brian OBC 22:17 40.389 32/95 VBM 11/23 1.2572
Schuck, Peter  OBC 22:17 40.389 32/95 VCM 8/16  
34 Burdett, Avery  OBC 22:19 40.329 34/95 VEM 1/2 1.0805
35 Kruger, Andrew  ULT 22:22 40.238 35/95 VAM 7/19 0.9090
36 Plaunt, Grahame OBC 22:23 40.208 36/95 VAM 8/19 0.9888
Tessier, Benoit RDO 22:23 40.208 36/95 VAM 8/19 1.0896
38 Kerckhoff, Hermann  RWR 22:27 40.089 38/95 VEM 2/2 1.0361
39 Muller-Cheng, Evan OBC 22:31 39.970 39/95 SEM 3/5 1.2210
40 Posthuma, Hans  OBC 22:37 39.794 40/95 VCM 9/16 1.0426
41 Miner, Chris OBC 22:40 39.706 41/95 VBM 12/23  
Weiser, Paul OBC 22:40 39.706 41/95 VDM 4/7  
43 Morris, Steve EUR 22:46 39.531 43/95 VBM 13/23 1.0423
44 McCutcheon, Drew OBC 22:47 39.503 44/95 VAM 10/19 1.1304
45 Boulanger, Gaetan  OBC 22:49 39.445 45/95 VDM 5/7 1.1469
46 Campbell, Greg OBC 22:53 39.330 46/95 VAM 11/19 1.1779
47 Hess, Detlef OBC 22:57 39.216 47/95 VCM 10/16 1.1083
48 Hall, Margot OBC 23:01 39.102 48/95 VAF 1/6 1.0756
49 Bilenkey, David OBC/EUR 23:07 38.933 49/95 VBM 14/23  
50 Kirton, Ian OBC 23:09 38.877 50/95 VAM 12/19 1.0305
51 Brügger, Marcel RWR 23:11 38.821 51/95 VCM 11/16 1.1141
s D'Aoust, Sylvie & Glover, Jim OBC/CYC 23:11 38.821 51/95 TTT 1/1  
Stec, Artur OBC 23:11 38.821 51/95 VBM 15/23 1.0571
54 Coney, Michael OBC 23:22 38.516 54/95 VDM 6/7 1.0611
55 Young, Paul  OBC 23:23 38.489 55/95 VBM 16/23 1.0215
56 Dorego, Jean-Louis OBC 23:25 38.434 56/95 VCM 12/16 1.1083
57 Thomas, Trevor CYC 23:26 38.407 57/95 VAM 13/19 0.9642
58 Burge, Larry  OBC 23:27 38.380 58/95 VBM 17/23 1.1014
59 Deavy, Carol  OBC 23:33 38.217 59/95 VBF 2/7 1.1988
Langevin, Roger  OBC 23:33 38.217 59/95 VAM 14/19 1.0085
61 Forcese, Craig OBC 23:43 37.948 61/95 VBM 18/23 1.0956
62 Blais, Bob OBC 23:46 37.868 62/95 VCM 13/16 1.1339
63 Parkinson, Scott OBC 23:50 37.762 63/95 VAM 15/19 3.5820
64 Robitaille, Brian  OBC 23:55 37.631 64/95 VBM 19/23 0.9731
65 Marleau, Dianne  OBC/RWR 23:57 37.578 65/95 VBF 3/7 1.1125
66 Ingham, Alison  OBC/RWR 23:59 37.526 66/95 VBF 4/7 1.1372
67 Braekevelt, Eric OBC 24:15 37.113 67/95 VAM 16/19 1.0144
68 Yardley, Jane  CYF 24:31 36.710 68/95 VAF 2/6 1.2088
69 Henry, Mike --- 24:32 36.685 69/95 VAM 17/19 0.9658
70 Utting, Nicholas OBC 24:34 36.635 70/95 SEM 4/5  
71 Imbrogno, Giorgio  OBC 24:36 36.585 71/95 VDM 7/7 1.0020
72 McKay, Andrea  OBC 24:38 36.536 72/95 VBF 5/7  
Samborsky, Mark OBC 24:38 36.536 72/95 VBM 20/23  
74 Simard, Martin OBC 24:45 36.364 74/95 VCM 14/16  
75 McKinnon, Carrie OBC 24:50 36.242 75/95 VBF 6/7 1.1411
76 Janusauskas, Vytas  OBC 24:51 36.217 76/95 VCM 15/16 1.1018
77 McInnis, Celia  OBC/ABC 24:56 36.096 77/95 VCF 1/2 1.1101
78 Plouffe, Yves OBC 25:02 35.952 78/95 VBM 21/23 1.1377
79 Pelletier, Luc OBC 25:04 35.904 79/95 VAM 18/19 1.1859
80 Kerrigan, Bruce OBC 25:15 35.644 80/95 VBM 22/23  
81 van Zandvoort, Mike OBC 25:30 35.294 81/95 SEM 5/5 1.1076
82 Jones, Amanda OBC/CYF 25:40 35.065 82/95 VAF 3/6  
83 Rees, Stephanie  OBC 25:54 34.749 83/95 VAF 4/6 1.2013
84 Ferlatte, Kari  FAE 26:09 34.417 84/95 VAF 5/6 1.1609
85 Bean, Camille OBC 26:10 34.395 85/95 CAF 1/1 1.2274
86 Gray, Leona  OBC 26:14 34.307 86/95 VDF 1/1 1.0821
87 McLaren, Louise  OBC 26:23 34.112 87/95 VBF 7/7 1.2605
88 Cavanagh, James OBC 26:27 34.026 88/95 VBM 23/23  
89 Attia, Paul OBC 26:48 33.582 89/95 VAM 19/19 1.0982
90 Jardine, Karen  OBC 27:05 33.231 90/95 VCF 2/2 1.4166
91 Gee, Derek  OBC 28:20 31.765 91/95 PWM 1/1  
92 Ramcharan, John OBC 29:11 30.840 92/95 VCM 16/16 1.2477
93 Lansing, Melissa  CYF 30:19 29.687 93/95 SEF 1/1  
94 Johnson, Laura  OBC/CYF 31:31 28.556 94/95 VAF 6/6  
95 Morewood, Colin OBC DNF   95/95 JUM 2/2  
 
Average Speed of all of the above 94 finishes (1410km in 36:28:09):38.663
>>>Average of the Average Speeds for these 94 finishes39.008<<<
 

The number of data records shown above is 95
The server processing of your query took: 4 wallclock secs ( 0.14 usr + 0.04 sys = 0.18 CPU)

Thanks to our Helpers: Paul Attia, Matteo Dal-Cin, Neil Farish, Gunter Hauschildt, Warren MacDonald, Alex McKnight, Art Morewood, Ron Phillips.

     


Apr 10 (Good Friday)
May 5 (10km) May 7 May 12 (10km) May 14 May 19 May 19 (10km) May 21 May 26 May 26 (10km) May 28 May 31 (40km)
Jun 2 Jun 2
  Jun 4  
Jun 9 Jun 9 Jun 11 Jun 16 Jun 16 Jun 18 Jun 23 Jun 23 Jun 25 Jun 30 Jun 30
Jul 2 Jul 5 (40km) Jul 7 Jul 7 (10km) Jul 9 (10km) Jul 12 (40km) Jul 14 Jul 14 (10km) Jul 16 (10km) Jul 21 Jul 21 (10km) Jul 23 Jul 23 (10km) Jul 28 Jul 28 (10km) Jul 30 (10km)
Aug 4 (cancelled - thunder storm) Aug 4 (10km) (cancelled - thunder storm) Aug 6 (10km) Aug 9 (40km) Aug 11 Aug 11 (10km) Aug 13 (10km) Aug 18 Aug 18 (10km) Aug 20 (10km) (cancelled - construction) Aug 25 Aug 25 (Invitational) Aug 27
Sep 1 Sep 3 Sep 8 Sep 10 Sep 13 (40km) Sep 15 Sep 22 Sep 29

OTT Rankings
Best       Best by category
WTT Rankings for OBC Members
4 Best Speeds     4 Best Speeds by category
OBC Member Best Three 15km Rankings
Overall     by category     age-Hcap Female   age-Hcap Male
OBC BAR Ranking
Overall     by category     Rider "Consistency-Graph"
ABC BAR Ranking
Overall     by category     Rider "Consistency-Graph"
Other years
TT Calculator All TT People All TT events
ABC Home VVV Home
CKAP GOLD MEDAL
Other Links

Note: OTT data from 2003 through 2006-Apr-14 and 2007-Apr-06-? and WTT from 2008-? is taken from the official OBC site.

Please send your comments and suggestions to: Celia McInnis
Copyright © 1998-2011 Celia McInnis. All rights reserved. Links are welcomed.